Ana Sayfa
METAR-TAF:

METAR-TAF

Havaalanları :

Double Eagle II Airport

Albuquerque, New Mexico, Amerika Birleşik Devletleri

Enlem: 35-08-42N, Boylam: 106-47-42W, yükseklik: 1779 m

Güncel hava durumu gözlemi

Rapor saat 09:55 UTC de 30 dakika önce yapıldı.
Rüzgar batıdan 10 kt
Sıcaklık 0°C
Nem 40%
Basınç 1029 hPa
Görüş mesafesi: 16.1 km
Açık gökyüzü

METAR: KAEG 280955Z AUTO 28010KT 10SM CLR 00/M12 A3038 RMK AO2 T00021121

Saat: 03:25 (10:25 UTC)

Tahmin

Rapor saat 05:22 UTC de 5 saat ve 3 dakika önce yapıldı.
Ayın 28'si saat 06 UTC'den ayın 29'si saat 06 UTC'ye kadar geçerli Tahmin
Rüzgar kuzeybatıdan 6 kt
Görüş mesafesi: 10 km
25000 ft yükseklikte parçalı bulutlu
Ayın 28'si saat 2300 UTC'den
Rüzgar değişken yönden 6 kt
Görüş mesafesi: 10 km
25000 ft yükseklikte parçalı çok bulutlu

TAF: KAEG 280522Z 2806/2906 32006KT P6SM SCT250 FM282300 VRB06KT P6SM BKN250

4.000'den fazla havaalanı için hava durumu gözlemleri ve tahminleri (METAR ve TAF raporları).

Kullanılabilir istasyonlar harita üzerinde sarı ve kırmızı noktalarla gösterilir.

İstasyonun adını görmek için fareyi noktanın üzerinde gezdirin.

Sonrasında hava gözlem ve tahminlerini görmek için tıklayın.

Haritayı değiştirmek için: yaklaştırmak için siyah artı işaretli yeşil düğmeye ve uzaklaştırmak için de eksi işaretli düğmeye hızla tıklayın; bitişik haritalar için yeşil okları kullanın.


METAR-TAF: